createdAt,value
2019-01-18T00:00:59.792Z,2.6
2019-01-18T00:02:00.460Z,2.6
2019-01-18T00:03:01.131Z,2.7
2019-01-18T00:04:01.849Z,2.6
2019-01-18T00:05:02.517Z,2.6
2019-01-18T00:06:03.186Z,2.5
2019-01-18T00:07:03.852Z,2.6
2019-01-18T00:08:04.524Z,2.5
2019-01-18T00:09:05.191Z,2.5
2019-01-18T00:10:05.860Z,2.4
2019-01-18T00:11:06.531Z,2.5
2019-01-18T00:12:07.199Z,2.5
2019-01-18T00:13:07.867Z,2.4
2019-01-18T00:14:08.537Z,2.4
2019-01-18T00:15:09.206Z,2.4
2019-01-18T00:16:09.874Z,2.4
2019-01-18T00:17:10.543Z,2.4
2019-01-18T00:18:11.214Z,2.5
2019-01-18T00:19:11.929Z,2.4
2019-01-18T00:20:12.600Z,2.5
2019-01-18T00:21:13.268Z,2.4
2019-01-18T00:22:13.936Z,2.4
2019-01-18T00:23:14.604Z,2.4
2019-01-18T00:24:15.273Z,2.4
2019-01-18T00:25:15.942Z,2.5
2019-01-18T00:26:16.610Z,2.5
2019-01-18T00:27:17.280Z,2.5
2019-01-18T00:28:17.950Z,2.5
2019-01-18T00:29:18.618Z,2.6
2019-01-18T00:30:19.288Z,2.6
2019-01-18T00:31:19.957Z,2.5
2019-01-18T00:32:20.625Z,2.5
2019-01-18T00:33:21.295Z,2.5
2019-01-18T00:34:21.962Z,2.5
2019-01-18T00:35:22.632Z,2.3
2019-01-18T00:36:23.300Z,2.4
2019-01-18T00:37:23.970Z,2.4
2019-01-18T00:38:24.639Z,2.4
2019-01-18T00:39:25.324Z,2.4
2019-01-18T00:40:25.978Z,2.4
2019-01-18T00:41:26.648Z,2.4
2019-01-18T00:42:27.316Z,2.4
2019-01-18T00:43:27.985Z,2.4
2019-01-18T00:44:28.654Z,2.4
2019-01-18T00:45:29.322Z,2.3
2019-01-18T00:46:29.990Z,2.4
2019-01-18T00:47:30.661Z,2.4
2019-01-18T00:48:31.330Z,2.3
2019-01-18T00:49:31.998Z,2.4
2019-01-18T00:50:32.668Z,2.4
2019-01-18T00:51:33.337Z,2.5
2019-01-18T00:52:34.007Z,2.5
2019-01-18T00:53:34.676Z,2.5
2019-01-18T00:54:35.344Z,2.6
2019-01-18T00:55:36.014Z,2.6
2019-01-18T00:56:36.683Z,2.7
2019-01-18T00:57:37.350Z,2.6
2019-01-18T00:58:38.019Z,2.6
2019-01-18T00:59:38.687Z,2.6
2019-01-18T01:00:39.357Z,2.6
2019-01-18T01:01:40.027Z,2.6
2019-01-18T01:02:40.695Z,2.8
2019-01-18T01:03:41.367Z,2.7
2019-01-18T01:04:42.034Z,2.7
2019-01-18T01:05:42.702Z,2.8
2019-01-18T01:06:43.372Z,2.8
2019-01-18T01:07:44.040Z,2.7
2019-01-18T01:08:44.714Z,2.8
2019-01-18T01:09:45.430Z,2.8
2019-01-18T01:10:46.098Z,2.8
2019-01-18T01:11:46.767Z,2.9
2019-01-18T01:12:47.441Z,2.9
2019-01-18T01:13:48.206Z,2.9
2019-01-18T01:14:48.879Z,3.0
2019-01-18T01:15:49.545Z,2.9
2019-01-18T01:16:50.213Z,2.9
2019-01-18T01:17:50.882Z,2.9
2019-01-18T01:18:51.601Z,3.0
2019-01-18T01:19:52.270Z,3.0
2019-01-18T01:20:52.938Z,3.0
2019-01-18T01:21:53.608Z,3.0
2019-01-18T01:22:54.278Z,3.0
2019-01-18T01:23:54.946Z,3.0
2019-01-18T01:24:55.617Z,3.0
2019-01-18T01:25:56.287Z,3.0
2019-01-18T01:26:56.955Z,3.0
2019-01-18T01:27:57.627Z,3.0
2019-01-18T01:28:58.295Z,3.0
2019-01-18T01:29:58.963Z,3.0
2019-01-18T01:30:59.630Z,3.0
2019-01-18T01:32:00.299Z,3.0
2019-01-18T01:33:00.970Z,3.0
2019-01-18T01:34:01.639Z,3.0
2019-01-18T01:35:02.310Z,3.1
2019-01-18T01:36:02.980Z,3.0
2019-01-18T01:37:03.648Z,3.1
2019-01-18T01:38:04.318Z,3.0
2019-01-18T01:39:04.986Z,3.1
2019-01-18T01:40:05.655Z,3.1
2019-01-18T01:41:06.375Z,3.0
2019-01-18T01:42:07.045Z,3.0
2019-01-18T01:43:07.714Z,3.0
2019-01-18T01:44:08.383Z,3.1
2019-01-18T01:45:09.052Z,3.0
2019-01-18T01:46:09.723Z,3.0
2019-01-18T01:47:10.390Z,3.0
2019-01-18T01:48:11.060Z,2.9
2019-01-18T01:49:11.730Z,3.0
2019-01-18T01:50:12.398Z,3.0
2019-01-18T01:51:13.069Z,3.0
2019-01-18T01:52:13.739Z,3.0
2019-01-18T01:53:14.408Z,3.0
2019-01-18T01:54:15.078Z,3.0
2019-01-18T01:55:15.749Z,3.0
2019-01-18T01:56:16.416Z,3.0
2019-01-18T01:57:17.084Z,3.1
2019-01-18T01:58:17.754Z,3.0
2019-01-18T01:59:18.443Z,3.0
2019-01-18T02:00:19.113Z,3.0
2019-01-18T02:01:19.834Z,3.0
2019-01-18T02:02:20.506Z,3.0
2019-01-18T02:03:21.173Z,2.9
2019-01-18T02:04:21.841Z,3.0
2019-01-18T02:05:22.511Z,3.0
2019-01-18T02:06:23.181Z,3.0
2019-01-18T02:07:23.849Z,3.0
2019-01-18T02:08:24.520Z,3.0
2019-01-18T02:09:25.188Z,3.0
2019-01-18T02:10:25.856Z,3.0
2019-01-18T02:11:26.524Z,3.0
2019-01-18T02:12:27.194Z,2.9
2019-01-18T02:13:27.863Z,3.0
2019-01-18T02:14:28.531Z,3.0
2019-01-18T02:15:29.201Z,2.9
2019-01-18T02:16:29.871Z,2.9
2019-01-18T02:17:30.540Z,2.8
2019-01-18T02:18:31.209Z,2.8
2019-01-18T02:19:31.879Z,2.6
2019-01-18T02:20:32.549Z,2.6
2019-01-18T02:21:33.217Z,2.7
2019-01-18T02:22:33.888Z,2.5
2019-01-18T02:23:34.556Z,2.6
2019-01-18T02:24:35.226Z,2.6
2019-01-18T02:25:35.894Z,2.6
2019-01-18T02:26:36.563Z,2.8
2019-01-18T02:27:37.233Z,2.7
2019-01-18T02:28:37.902Z,2.7
2019-01-18T02:29:38.572Z,2.6
2019-01-18T02:30:39.242Z,2.7
2019-01-18T02:31:39.911Z,2.5
2019-01-18T02:32:40.583Z,2.6
2019-01-18T02:33:41.250Z,2.5
2019-01-18T02:34:41.918Z,2.7
2019-01-18T02:35:42.590Z,2.6
2019-01-18T02:36:43.258Z,2.6
2019-01-18T02:37:43.926Z,2.6
2019-01-18T02:38:44.593Z,2.6
2019-01-18T02:39:45.264Z,2.6
2019-01-18T02:40:45.933Z,2.6
2019-01-18T02:41:46.601Z,2.6
2019-01-18T02:42:47.272Z,2.7
2019-01-18T02:43:47.941Z,2.6
2019-01-18T02:44:48.611Z,2.7
2019-01-18T02:45:49.279Z,2.6
2019-01-18T02:46:49.951Z,2.7
2019-01-18T02:47:50.616Z,2.7
2019-01-18T02:48:51.286Z,2.7
2019-01-18T02:49:51.955Z,2.6
2019-01-18T02:50:52.623Z,2.6
2019-01-18T02:51:53.293Z,2.6
2019-01-18T02:52:53.963Z,2.6
2019-01-18T02:53:54.630Z,2.5
2019-01-18T02:54:55.299Z,2.5
2019-01-18T02:55:55.970Z,2.4
2019-01-18T02:56:56.679Z,2.4
2019-01-18T02:57:57.349Z,2.3
2019-01-18T02:58:58.019Z,2.3
2019-01-18T03:00:04.796Z,2.3
2019-01-18T03:01:00.348Z,2.3
2019-01-18T03:02:01.020Z,2.3
2019-01-18T03:03:01.740Z,2.2
2019-01-18T03:04:02.463Z,2.3
2019-01-18T03:05:03.129Z,2.2
2019-01-18T03:06:03.825Z,2.2
2019-01-18T03:07:04.520Z,2.2
2019-01-18T03:08:05.230Z,2.2
2019-01-18T03:09:05.900Z,2.3
2019-01-18T03:10:06.569Z,2.2
2019-01-18T03:11:07.237Z,2.2
2019-01-18T03:12:07.905Z,2.2
2019-01-18T03:13:08.574Z,2.2
2019-01-18T03:14:09.242Z,2.2
2019-01-18T03:15:09.913Z,2.2
2019-01-18T03:16:10.580Z,2.2
2019-01-18T03:17:11.253Z,2.2
2019-01-18T03:18:11.920Z,2.2
2019-01-18T03:19:12.587Z,2.2
2019-01-18T03:20:13.260Z,2.1
2019-01-18T03:21:13.926Z,2.1
2019-01-18T03:22:14.682Z,2.1
2019-01-18T03:23:15.304Z,2.1
2019-01-18T03:24:15.972Z,2.2
2019-01-18T03:25:16.640Z,2.2
2019-01-18T03:26:17.309Z,2.2
2019-01-18T03:27:17.979Z,2.3
2019-01-18T03:28:18.650Z,2.3
2019-01-18T03:29:19.317Z,2.3
2019-01-18T03:30:20.972Z,2.2
2019-01-18T03:31:20.704Z,2.2
2019-01-18T03:32:21.372Z,2.4
2019-01-18T03:33:22.041Z,2.3
2019-01-18T03:34:22.710Z,2.3
2019-01-18T03:35:23.378Z,2.4
2019-01-18T03:36:24.046Z,2.5
2019-01-18T03:37:24.714Z,2.4
2019-01-18T03:38:25.379Z,2.4
2019-01-18T03:39:26.049Z,2.5
2019-01-18T03:40:26.717Z,2.5
2019-01-18T03:41:27.435Z,2.5
2019-01-18T03:42:28.102Z,2.6
2019-01-18T03:43:28.770Z,2.6
2019-01-18T03:44:29.438Z,2.6
2019-01-18T03:45:30.104Z,2.6
2019-01-18T03:46:30.771Z,2.6
2019-01-18T03:47:31.440Z,2.6
2019-01-18T03:48:32.108Z,2.6
2019-01-18T03:49:32.779Z,2.6
2019-01-18T03:50:33.444Z,2.6
2019-01-18T03:51:34.111Z,2.6
2019-01-18T03:52:34.779Z,2.6
2019-01-18T03:53:35.446Z,2.6
2019-01-18T03:54:36.114Z,2.6
2019-01-18T03:55:36.786Z,2.6
2019-01-18T03:56:37.450Z,2.6
2019-01-18T03:57:38.117Z,2.6
2019-01-18T03:58:38.786Z,2.6
2019-01-18T03:59:39.455Z,2.6
2019-01-18T04:00:40.122Z,2.6
2019-01-18T04:01:40.791Z,2.6
2019-01-18T04:02:41.471Z,2.6
2019-01-18T04:03:42.126Z,2.6
2019-01-18T04:04:42.795Z,2.6
2019-01-18T04:05:43.462Z,2.6
2019-01-18T04:06:44.131Z,2.7
2019-01-18T04:07:44.797Z,2.6
2019-01-18T04:08:45.467Z,2.6
2019-01-18T04:09:46.135Z,2.6
2019-01-18T04:10:46.803Z,2.6
2019-01-18T04:11:47.471Z,2.6
2019-01-18T04:12:48.140Z,2.6
2019-01-18T04:13:48.822Z,2.6
2019-01-18T04:14:49.475Z,2.5
2019-01-18T04:15:50.193Z,2.6
2019-01-18T04:16:50.861Z,2.7
2019-01-18T04:17:51.531Z,2.6
2019-01-18T04:18:52.213Z,2.6
2019-01-18T04:19:52.863Z,2.7
2019-01-18T04:20:53.531Z,2.6
2019-01-18T04:21:54.198Z,2.7
2019-01-18T04:22:54.869Z,2.6
2019-01-18T04:23:55.535Z,2.5
2019-01-18T04:24:56.203Z,2.6
2019-01-18T04:25:56.871Z,2.5
2019-01-18T04:26:57.541Z,2.5
2019-01-18T04:27:58.208Z,2.5
2019-01-18T04:28:58.877Z,2.4
2019-01-18T04:29:59.540Z,2.5
2019-01-18T04:31:00.210Z,2.4
2019-01-18T04:32:00.877Z,2.3
2019-01-18T04:33:01.545Z,2.2
2019-01-18T04:34:02.216Z,2.2
2019-01-18T04:35:02.886Z,2.2
2019-01-18T04:36:03.549Z,2.2
2019-01-18T04:37:04.217Z,2.3
2019-01-18T04:38:04.887Z,2.2
2019-01-18T04:39:05.554Z,2.2
2019-01-18T04:40:06.219Z,2.2
2019-01-18T04:41:06.886Z,2.1
2019-01-18T04:42:07.555Z,2.1
2019-01-18T04:43:08.223Z,2.2
2019-01-18T04:44:08.891Z,2.1
2019-01-18T04:45:09.559Z,2.1
2019-01-18T04:46:10.277Z,2.1
2019-01-18T04:47:10.946Z,2.1
2019-01-18T04:48:11.663Z,2.1
2019-01-18T04:49:12.331Z,2.1
2019-01-18T04:50:12.998Z,2.0
2019-01-18T04:51:13.669Z,2.0
2019-01-18T04:52:14.339Z,2.0
2019-01-18T04:53:15.008Z,2.0
2019-01-18T04:54:15.671Z,2.0
2019-01-18T04:55:16.339Z,2.1
2019-01-18T04:56:17.007Z,2.0
2019-01-18T04:57:17.675Z,2.0
2019-01-18T04:58:18.344Z,2.0
2019-01-18T04:59:19.012Z,2.0
2019-01-18T05:00:19.679Z,1.9
2019-01-18T05:01:20.351Z,2.0
2019-01-18T05:02:21.014Z,1.9
2019-01-18T05:03:21.680Z,1.9
2019-01-18T05:04:22.349Z,1.9
2019-01-18T05:05:23.017Z,1.9
2019-01-18T05:06:23.732Z,1.8
2019-01-18T05:07:24.400Z,1.8
2019-01-18T05:08:25.069Z,1.8
2019-01-18T05:09:25.736Z,1.7
2019-01-18T05:10:26.454Z,1.8
2019-01-18T05:11:27.120Z,1.7
2019-01-18T05:12:27.791Z,1.6
2019-01-18T05:13:28.457Z,1.6
2019-01-18T05:14:29.124Z,1.6
2019-01-18T05:15:29.846Z,1.5
2019-01-18T05:16:30.514Z,1.4
2019-01-18T05:17:31.177Z,1.5
2019-01-18T05:18:31.849Z,1.3
2019-01-18T05:19:32.512Z,1.3
2019-01-18T05:20:33.181Z,1.1
2019-01-18T05:21:33.847Z,1.2
2019-01-18T05:22:34.516Z,1.2
2019-01-18T05:23:35.182Z,1.1
2019-01-18T05:24:35.849Z,1.0
2019-01-18T05:25:36.515Z,1.0
2019-01-18T05:26:37.183Z,1.1
2019-01-18T05:27:37.854Z,1.0
2019-01-18T05:28:38.568Z,0.9
2019-01-18T05:29:39.236Z,1.0
2019-01-18T05:30:39.903Z,0.9
2019-01-18T05:31:40.570Z,0.9
2019-01-18T05:32:41.238Z,0.9
2019-01-18T05:33:41.905Z,0.9
2019-01-18T05:34:42.572Z,0.8
2019-01-18T05:35:43.239Z,0.9
2019-01-18T05:36:43.906Z,0.9
2019-01-18T05:37:44.574Z,0.8
2019-01-18T05:38:45.245Z,0.8
2019-01-18T05:39:45.910Z,0.8
2019-01-18T05:40:46.626Z,0.7
2019-01-18T05:41:47.291Z,0.7
2019-01-18T05:42:47.959Z,0.7
2019-01-18T05:43:48.674Z,0.7
2019-01-18T05:44:49.337Z,0.6
2019-01-18T05:45:50.002Z,0.6
2019-01-18T05:46:50.670Z,0.6
2019-01-18T05:47:51.346Z,0.6
2019-01-18T05:48:52.008Z,0.5
2019-01-18T05:49:52.720Z,0.5
2019-01-18T05:50:53.384Z,0.5
2019-01-18T05:51:54.052Z,0.5
2019-01-18T05:52:54.718Z,0.4
2019-01-18T05:53:55.387Z,0.4
2019-01-18T05:54:56.053Z,0.4
2019-01-18T05:55:56.720Z,0.4
2019-01-18T05:56:57.387Z,0.3
2019-01-18T05:57:58.054Z,0.4
2019-01-18T05:58:58.723Z,0.3
2019-01-18T05:59:59.387Z,0.4
2019-01-18T06:01:00.324Z,0.3
2019-01-18T06:02:00.990Z,0.4
2019-01-18T06:03:01.658Z,0.4
2019-01-18T06:04:02.325Z,0.3
2019-01-18T06:05:02.991Z,0.3
2019-01-18T06:06:03.657Z,0.3
2019-01-18T06:07:04.324Z,0.3
2019-01-18T06:08:04.989Z,0.3
2019-01-18T06:09:05.656Z,0.4
2019-01-18T06:10:06.321Z,0.2
2019-01-18T06:11:06.989Z,0.2
2019-01-18T06:12:07.656Z,0.2
2019-01-18T06:13:08.322Z,0.3
2019-01-18T06:14:08.989Z,0.1
2019-01-18T06:15:09.657Z,0.3
2019-01-18T06:16:10.323Z,0.1
2019-01-18T06:17:10.988Z,0.2
2019-01-18T06:18:11.660Z,0.1
2019-01-18T06:19:12.324Z,0.1
2019-01-18T06:20:12.990Z,0.1
2019-01-18T06:21:13.661Z,0.1
2019-01-18T06:22:14.374Z,0.1
2019-01-18T06:23:15.041Z,0.1
2019-01-18T06:24:15.713Z,0.0
2019-01-18T06:25:16.457Z,0.0
2019-01-18T06:26:17.081Z,0.0
2019-01-18T06:27:17.751Z,0.1
2019-01-18T06:28:18.416Z,0.1
2019-01-18T06:29:19.079Z,0.0
2019-01-18T06:30:19.745Z,0.0
2019-01-18T06:31:20.412Z,-0.0
2019-01-18T06:32:21.078Z,0.0
2019-01-18T06:33:21.749Z,0.1
2019-01-18T06:34:22.410Z,0.0
2019-01-18T06:35:23.079Z,0.1
2019-01-18T06:36:23.794Z,0.1
2019-01-18T06:37:24.459Z,0.0
2019-01-18T06:38:25.135Z,0.0
2019-01-18T06:39:25.847Z,-0.0
2019-01-18T06:40:26.511Z,0.0
2019-01-18T06:41:27.180Z,-0.0
2019-01-18T06:42:27.848Z,0.0
2019-01-18T06:43:28.511Z,0.0
2019-01-18T06:44:29.178Z,-0.1
2019-01-18T06:45:29.895Z,-0.1
2019-01-18T06:46:30.562Z,-0.0
2019-01-18T06:47:31.229Z,0.0
2019-01-18T06:48:31.897Z,-0.1
2019-01-18T06:49:32.566Z,-0.0
2019-01-18T06:50:33.236Z,-0.0
2019-01-18T06:51:33.952Z,-0.1
2019-01-18T06:52:34.620Z,-0.1
2019-01-18T06:53:35.290Z,-0.1
2019-01-18T06:54:35.957Z,0.0
2019-01-18T06:55:36.625Z,-0.0
2019-01-18T06:56:37.293Z,0.0
2019-01-18T06:57:37.962Z,-0.1
2019-01-18T06:58:38.630Z,-0.0
2019-01-18T06:59:39.299Z,0.0
2019-01-18T07:00:39.964Z,0.1
2019-01-18T07:01:40.633Z,0.0
2019-01-18T07:02:41.300Z,0.0
2019-01-18T07:03:41.968Z,0.0
2019-01-18T07:04:42.637Z,0.0
2019-01-18T07:05:43.304Z,-0.1
2019-01-18T07:06:43.973Z,0.0
2019-01-18T07:07:44.644Z,-0.0
2019-01-18T07:08:45.311Z,0.0
2019-01-18T07:09:45.981Z,0.0
2019-01-18T07:10:46.649Z,0.0
2019-01-18T07:11:47.368Z,0.0
2019-01-18T07:12:48.036Z,0.0
2019-01-18T07:13:48.704Z,0.0
2019-01-18T07:14:49.372Z,0.1
2019-01-18T07:15:50.046Z,0.1
2019-01-18T07:16:50.708Z,0.0
2019-01-18T07:17:51.376Z,0.0
2019-01-18T07:18:52.045Z,0.0
2019-01-18T07:19:52.714Z,0.0
2019-01-18T07:20:53.381Z,0.0
2019-01-18T07:21:54.051Z,0.0
2019-01-18T07:22:54.720Z,0.0
2019-01-18T07:23:55.389Z,0.0
2019-01-18T07:24:56.109Z,0.0
2019-01-18T07:25:56.777Z,0.0
2019-01-18T07:26:57.449Z,0.0
2019-01-18T07:27:58.117Z,0.0
2019-01-18T07:28:58.786Z,0.0
2019-01-18T07:29:59.458Z,0.0
2019-01-18T07:31:00.129Z,-0.0
2019-01-18T07:32:00.804Z,-0.0
2019-01-18T07:33:01.470Z,0.0
2019-01-18T07:34:02.139Z,0.0
2019-01-18T07:35:02.810Z,0.0
2019-01-18T07:36:03.480Z,-0.0
2019-01-18T07:37:04.150Z,-0.0
2019-01-18T07:38:04.822Z,0.0
2019-01-18T07:39:05.541Z,0.0
2019-01-18T07:40:06.212Z,0.1
2019-01-18T07:41:06.881Z,0.1
2019-01-18T07:42:07.551Z,0.1
2019-01-18T07:43:08.222Z,0.1
2019-01-18T07:44:08.941Z,0.1
2019-01-18T07:45:09.613Z,0.1
2019-01-18T07:46:10.285Z,0.1
2019-01-18T07:47:10.955Z,0.1
2019-01-18T07:48:11.623Z,0.0
2019-01-18T07:49:12.295Z,0.1
2019-01-18T07:50:19.647Z,0.1
2019-01-18T07:51:14.676Z,0.1
2019-01-18T07:52:15.346Z,0.1
2019-01-18T07:53:16.435Z,0.1
2019-01-18T07:54:17.098Z,0.1
2019-01-18T07:55:17.766Z,0.1
2019-01-18T07:56:18.439Z,0.1
2019-01-18T07:57:19.107Z,0.0
2019-01-18T07:58:19.776Z,0.1
2019-01-18T07:59:20.448Z,0.1
2019-01-18T08:00:21.118Z,0.1
2019-01-18T08:01:22.230Z,0.1
2019-01-18T08:02:23.059Z,0.0
2019-01-18T08:03:23.728Z,0.2
2019-01-18T08:04:24.399Z,0.1
2019-01-18T08:05:25.069Z,0.0
2019-01-18T08:06:25.808Z,0.0
2019-01-18T08:07:26.512Z,0.1
2019-01-18T08:08:27.183Z,0.2
2019-01-18T08:09:27.853Z,0.2
2019-01-18T08:10:28.525Z,0.2
2019-01-18T08:11:29.195Z,0.1
2019-01-18T08:12:29.866Z,0.1
2019-01-18T08:13:30.536Z,0.1
2019-01-18T08:14:31.246Z,0.2
2019-01-18T08:15:31.928Z,0.2
2019-01-18T08:16:32.600Z,0.2
2019-01-18T08:17:33.308Z,0.1
2019-01-18T08:18:33.994Z,0.2
2019-01-18T08:19:34.667Z,0.1
2019-01-18T08:20:35.335Z,0.3
2019-01-18T08:21:36.058Z,0.1
2019-01-18T08:22:36.726Z,0.2
2019-01-18T08:23:37.409Z,0.1
2019-01-18T08:24:38.120Z,0.3
2019-01-18T08:25:38.793Z,0.2
2019-01-18T08:26:39.463Z,0.3
2019-01-18T08:27:40.135Z,0.3
2019-01-18T08:28:40.804Z,0.2
2019-01-18T08:29:41.526Z,0.3
2019-01-18T08:30:42.196Z,0.3
2019-01-18T08:31:42.869Z,0.3
2019-01-18T08:32:43.540Z,0.4
2019-01-18T08:33:44.209Z,0.3
2019-01-18T08:34:44.880Z,0.3
2019-01-18T08:35:45.551Z,0.4
2019-01-18T08:36:46.223Z,0.4
2019-01-18T08:37:46.898Z,0.4
2019-01-18T08:38:47.563Z,0.4
2019-01-18T08:39:48.233Z,0.3
2019-01-18T08:40:48.906Z,0.5
2019-01-18T08:41:49.576Z,0.4
2019-01-18T08:42:50.249Z,0.4
2019-01-18T08:43:50.918Z,0.4
2019-01-18T08:44:51.589Z,0.5
2019-01-18T08:45:52.259Z,0.5
2019-01-18T08:46:52.932Z,0.6
2019-01-18T08:47:53.600Z,0.6
2019-01-18T08:48:54.272Z,0.6
2019-01-18T08:49:54.943Z,0.6
2019-01-18T08:50:55.619Z,0.7
2019-01-18T08:51:56.325Z,0.7
2019-01-18T08:52:56.957Z,0.8
2019-01-18T08:53:57.678Z,0.8
2019-01-18T08:54:58.350Z,0.8
2019-01-18T08:55:59.021Z,0.8
2019-01-18T08:56:59.741Z,0.8
2019-01-18T08:58:00.413Z,0.9
2019-01-18T08:59:01.084Z,0.8
2019-01-18T09:00:01.758Z,0.9
2019-01-18T09:01:02.426Z,0.8
2019-01-18T09:02:03.130Z,0.9
2019-01-18T09:03:03.868Z,1.0
2019-01-18T09:04:04.540Z,1.0
2019-01-18T09:05:05.209Z,1.0
2019-01-18T09:06:05.887Z,1.0
2019-01-18T09:07:06.552Z,1.0
2019-01-18T09:08:07.274Z,1.0
2019-01-18T09:09:07.944Z,0.9
2019-01-18T09:10:08.615Z,1.0
2019-01-18T09:11:09.287Z,1.0
2019-01-18T09:12:09.959Z,1.0
2019-01-18T09:13:10.632Z,1.0
2019-01-18T09:14:11.301Z,1.0
2019-01-18T09:15:11.971Z,1.1
2019-01-18T09:16:12.644Z,1.1
2019-01-18T09:17:13.316Z,1.2
2019-01-18T09:18:13.986Z,1.1
2019-01-18T09:19:14.658Z,1.3
2019-01-18T09:20:15.330Z,1.3
2019-01-18T09:21:16.001Z,1.2
2019-01-18T09:22:16.672Z,1.3
2019-01-18T09:23:17.391Z,1.3
2019-01-18T09:24:18.062Z,1.3
2019-01-18T09:25:18.734Z,1.4
2019-01-18T09:26:19.406Z,1.4
2019-01-18T09:27:20.076Z,1.4
2019-01-18T09:28:20.748Z,1.4
2019-01-18T09:29:21.470Z,1.4
2019-01-18T09:30:22.141Z,1.5
2019-01-18T09:31:22.812Z,1.6
2019-01-18T09:32:23.483Z,1.5
2019-01-18T09:33:24.163Z,1.6
2019-01-18T09:34:24.875Z,1.5
2019-01-18T09:35:25.547Z,1.5
2019-01-18T09:36:26.268Z,1.6
2019-01-18T09:37:26.941Z,1.6
2019-01-18T09:38:27.613Z,1.6
2019-01-18T09:39:28.284Z,1.6
2019-01-18T09:40:29.005Z,1.6
2019-01-18T09:41:29.678Z,1.6
2019-01-18T09:42:30.352Z,1.7
2019-01-18T09:43:31.023Z,1.6
2019-01-18T09:44:31.695Z,1.7
2019-01-18T09:45:32.366Z,1.7
2019-01-18T09:46:33.039Z,1.7
2019-01-18T09:47:33.714Z,1.7
2019-01-18T09:48:34.384Z,1.7
2019-01-18T09:49:35.056Z,1.7
2019-01-18T09:50:35.735Z,1.7
2019-01-18T09:51:36.449Z,1.7
2019-01-18T09:52:37.119Z,1.8
2019-01-18T09:53:37.793Z,1.7
2019-01-18T09:54:38.466Z,1.8
2019-01-18T09:55:39.136Z,1.7
2019-01-18T09:56:39.808Z,1.8
2019-01-18T09:57:40.481Z,1.7
2019-01-18T09:58:41.153Z,1.7
2019-01-18T09:59:41.824Z,1.8
2019-01-18T10:00:42.498Z,1.8
2019-01-18T10:01:49.111Z,1.7
2019-01-18T10:02:43.884Z,1.7
2019-01-18T10:03:44.555Z,1.8
2019-01-18T10:04:45.227Z,1.8
2019-01-18T10:05:45.898Z,1.9
2019-01-18T10:06:46.572Z,1.9
2019-01-18T10:07:47.243Z,1.9
2019-01-18T10:08:47.914Z,2.0
2019-01-18T10:09:48.587Z,1.8
2019-01-18T10:10:49.259Z,2.0
2019-01-18T10:11:49.931Z,2.1
2019-01-18T10:12:50.603Z,2.1
2019-01-18T10:13:51.273Z,2.1
2019-01-18T10:14:51.946Z,2.1
2019-01-18T10:15:52.620Z,2.1
2019-01-18T10:16:53.340Z,2.1
2019-01-18T10:18:00.418Z,2.1
2019-01-18T10:18:55.711Z,2.1
2019-01-18T10:19:56.347Z,2.1
2019-01-18T10:20:57.018Z,2.2
2019-01-18T10:21:57.692Z,2.2
2019-01-18T10:22:58.366Z,2.2
2019-01-18T10:23:59.037Z,2.3
2019-01-18T10:24:59.708Z,2.3
2019-01-18T10:26:00.382Z,2.3
2019-01-18T10:27:01.053Z,2.4
2019-01-18T10:28:01.725Z,2.4
2019-01-18T10:29:02.398Z,2.4
2019-01-18T10:30:03.070Z,2.4
2019-01-18T10:31:03.743Z,2.3
2019-01-18T10:32:04.415Z,2.5
2019-01-18T10:33:05.137Z,2.4
2019-01-18T10:34:05.808Z,2.5
2019-01-18T10:35:06.480Z,2.6
2019-01-18T10:36:07.152Z,2.6
2019-01-18T10:37:07.824Z,2.6
2019-01-18T10:38:08.496Z,2.6
2019-01-18T10:39:09.216Z,2.6
2019-01-18T10:40:09.890Z,2.6
2019-01-18T10:41:10.565Z,2.6
2019-01-18T10:42:11.287Z,2.6
2019-01-18T10:43:11.960Z,2.6
2019-01-18T10:44:12.667Z,2.7
2019-01-18T10:45:13.358Z,2.7
2019-01-18T10:46:14.031Z,2.6
2019-01-18T10:47:14.703Z,2.6
2019-01-18T10:48:15.373Z,2.7
2019-01-18T10:49:16.048Z,2.6
2019-01-18T10:50:16.720Z,2.7
2019-01-18T10:51:17.392Z,2.7
2019-01-18T10:52:18.114Z,2.8
2019-01-18T10:53:18.786Z,2.8
2019-01-18T10:54:19.462Z,2.7
2019-01-18T10:55:20.133Z,2.8
2019-01-18T10:56:20.806Z,2.8
2019-01-18T10:57:21.527Z,2.8
2019-01-18T10:58:22.199Z,2.8
2019-01-18T10:59:22.872Z,2.8
2019-01-18T11:00:23.544Z,2.7
2019-01-18T11:01:24.220Z,2.8
2019-01-18T11:02:24.893Z,2.7
2019-01-18T11:03:25.600Z,2.8
2019-01-18T11:04:26.287Z,2.8
2019-01-18T11:05:27.011Z,2.9
2019-01-18T11:06:27.682Z,2.8
2019-01-18T11:07:28.363Z,2.8
2019-01-18T11:08:29.078Z,2.9
2019-01-18T11:09:29.752Z,2.9
2019-01-18T11:10:30.477Z,2.9
2019-01-18T11:11:31.150Z,2.9
2019-01-18T11:12:31.823Z,2.9
2019-01-18T11:13:32.494Z,2.8
2019-01-18T11:14:33.167Z,2.8
2019-01-18T11:15:36.056Z,2.8
2019-01-18T11:16:35.504Z,2.9
2019-01-18T11:17:36.178Z,2.8
2019-01-18T11:18:36.852Z,2.8
2019-01-18T11:19:37.523Z,2.8
2019-01-18T11:20:38.196Z,2.9
2019-01-18T11:21:38.868Z,2.9
2019-01-18T11:22:39.545Z,2.9
2019-01-18T11:23:40.215Z,2.9
2019-01-18T11:24:40.887Z,2.9
2019-01-18T11:25:41.561Z,3.0
2019-01-18T11:26:42.235Z,3.1
2019-01-18T11:27:42.907Z,3.0
2019-01-18T11:28:43.580Z,3.1
2019-01-18T11:29:44.252Z,3.0
2019-01-18T11:30:44.925Z,3.1
2019-01-18T11:31:45.598Z,3.0
2019-01-18T11:32:46.270Z,3.1
2019-01-18T11:33:46.947Z,3.1
2019-01-18T11:34:47.667Z,3.0
2019-01-18T11:35:48.341Z,3.1
2019-01-18T11:36:49.015Z,3.0
2019-01-18T11:37:49.688Z,3.0
2019-01-18T11:38:50.359Z,3.0
2019-01-18T11:39:51.034Z,3.1
2019-01-18T11:40:51.704Z,3.1
2019-01-18T11:41:52.378Z,3.1
2019-01-18T11:42:53.050Z,3.1
2019-01-18T11:43:53.724Z,3.1
2019-01-18T11:44:54.398Z,3.1
2019-01-18T11:45:55.072Z,3.2
2019-01-18T11:46:55.743Z,3.3
2019-01-18T11:47:56.467Z,3.3
2019-01-18T11:48:57.190Z,3.2
2019-01-18T11:49:57.863Z,3.2
2019-01-18T11:50:58.536Z,3.2
2019-01-18T11:51:59.241Z,3.3
2019-01-18T11:52:59.883Z,3.2
2019-01-18T11:54:00.555Z,3.3
2019-01-18T11:55:01.278Z,3.3
2019-01-18T11:56:01.950Z,3.3
2019-01-18T11:57:02.669Z,3.3
2019-01-18T11:58:03.340Z,3.3
2019-01-18T11:59:04.016Z,3.3
2019-01-18T12:00:04.686Z,3.4
2019-01-18T12:01:05.359Z,3.2
2019-01-18T12:02:06.034Z,3.3
2019-01-18T12:03:06.706Z,3.4
2019-01-18T12:04:07.379Z,3.3
2019-01-18T12:05:08.051Z,3.4
2019-01-18T12:06:08.725Z,3.4
2019-01-18T12:07:09.398Z,3.4
2019-01-18T12:08:10.071Z,3.5
2019-01-18T12:09:10.745Z,3.4
2019-01-18T12:10:11.417Z,3.4
2019-01-18T12:11:12.092Z,3.5
2019-01-18T12:12:12.765Z,3.5
2019-01-18T12:13:13.436Z,3.5
2019-01-18T12:14:14.112Z,3.4
2019-01-18T12:15:14.797Z,3.5
2019-01-18T12:16:15.457Z,3.5
2019-01-18T12:17:16.130Z,3.5
2019-01-18T12:18:16.805Z,3.6
2019-01-18T12:19:17.478Z,3.6
2019-01-18T12:20:18.151Z,3.5
2019-01-18T12:21:18.825Z,3.5
2019-01-18T12:22:19.499Z,3.5
2019-01-18T12:23:20.227Z,3.6
2019-01-18T12:24:20.946Z,3.5
2019-01-18T12:25:21.618Z,3.5
2019-01-18T12:26:22.293Z,3.6
2019-01-18T12:27:22.966Z,3.6
2019-01-18T12:28:23.639Z,3.6
2019-01-18T12:29:24.363Z,3.7
2019-01-18T12:30:25.035Z,3.6
2019-01-18T12:31:25.711Z,3.9
2019-01-18T12:32:28.892Z,4.2
2019-01-18T12:33:27.120Z,4.3
2019-01-18T12:34:27.794Z,4.4
2019-01-18T12:35:28.469Z,4.6
2019-01-18T12:36:29.145Z,4.8
2019-01-18T12:37:29.823Z,4.8
2019-01-18T12:38:30.497Z,4.9
2019-01-18T12:39:31.172Z,4.8
2019-01-18T12:40:31.846Z,4.8
2019-01-18T12:41:32.520Z,4.7
2019-01-18T12:42:33.195Z,4.6
2019-01-18T12:43:33.871Z,4.5
2019-01-18T12:44:34.549Z,4.5
2019-01-18T12:45:35.219Z,4.3
2019-01-18T12:46:35.892Z,4.3
2019-01-18T12:47:36.567Z,4.3
2019-01-18T12:48:37.241Z,4.3
2019-01-18T12:49:37.916Z,4.3
2019-01-18T12:50:38.589Z,4.2
2019-01-18T12:51:39.264Z,4.3
2019-01-18T12:52:39.938Z,4.3
2019-01-18T12:53:40.611Z,4.3
2019-01-18T12:54:41.284Z,4.2
2019-01-18T12:55:41.959Z,4.2
2019-01-18T12:56:42.633Z,4.2
2019-01-18T12:57:43.306Z,4.0
2019-01-18T12:58:43.980Z,3.9
2019-01-18T12:59:44.654Z,3.9
2019-01-18T13:00:45.328Z,3.9
2019-01-18T13:01:46.002Z,4.0
2019-01-18T13:02:46.678Z,3.9
2019-01-18T13:03:47.349Z,3.9
2019-01-18T13:04:48.024Z,3.9
2019-01-18T13:05:48.700Z,4.0
2019-01-18T13:06:49.422Z,3.9
2019-01-18T13:07:50.095Z,3.9
2019-01-18T13:08:50.766Z,3.9
2019-01-18T13:09:51.443Z,4.0
2019-01-18T13:10:52.114Z,3.9
2019-01-18T13:11:52.788Z,3.8
2019-01-18T13:12:53.461Z,3.9
2019-01-18T13:13:54.137Z,3.9
2019-01-18T13:14:57.342Z,4.1
2019-01-18T13:15:56.478Z,4.2
2019-01-18T13:16:57.154Z,4.2
2019-01-18T13:17:57.831Z,4.2
2019-01-18T13:18:58.504Z,4.3
2019-01-18T13:19:59.181Z,4.5
2019-01-18T13:20:59.854Z,4.8
2019-01-18T13:22:00.529Z,4.9
2019-01-18T13:23:01.207Z,5.0
2019-01-18T13:24:01.884Z,5.1
2019-01-18T13:25:02.560Z,5.1
2019-01-18T13:26:03.236Z,5.1
2019-01-18T13:27:03.911Z,5.0
2019-01-18T13:28:04.634Z,4.9
2019-01-18T13:29:05.309Z,4.8
2019-01-18T13:30:06.033Z,4.8
2019-01-18T13:31:06.707Z,4.9
2019-01-18T13:32:07.381Z,4.9
2019-01-18T13:33:08.056Z,4.7
2019-01-18T13:34:08.734Z,4.5
2019-01-18T13:35:09.455Z,4.5
2019-01-18T13:36:10.130Z,4.5
2019-01-18T13:37:10.806Z,4.4
2019-01-18T13:38:11.477Z,4.3
2019-01-18T13:39:12.166Z,4.3
2019-01-18T13:40:12.877Z,4.3
2019-01-18T13:41:13.550Z,4.2
2019-01-18T13:42:14.222Z,4.3
2019-01-18T13:43:14.900Z,4.3
2019-01-18T13:44:15.623Z,4.3
2019-01-18T13:45:16.302Z,4.3
2019-01-18T13:46:16.972Z,4.3
2019-01-18T13:47:18.361Z,4.2
2019-01-18T13:48:19.311Z,4.2
2019-01-18T13:49:19.984Z,4.2
2019-01-18T13:50:20.658Z,4.2
2019-01-18T13:51:21.333Z,4.1
2019-01-18T13:52:22.007Z,4.0
2019-01-18T13:53:22.680Z,3.9
2019-01-18T13:54:23.355Z,3.9
2019-01-18T13:55:24.080Z,3.9